KSLK/SLK METAR and TAF weather

Enter ICAO airport designator
Station Type Date Time Source
KSLK METAR 2022/01/26 13:14 UTC NOAA

KSLK 261314Z AUTO 00000KT 3SM BR CLR M28/M29 A3018 RMK AO2 T12831294


Station Type Date Time Source
KSLK Decoded METAR 2022/01/26 13:14 UTC NOAA

ADIRONDACK REGIONAL AIRPORT, NY, United States (KSLK) 44-24N 074-12W 498M
Jan 26, 2022 - 08:14 AM EST / 2022.01.26 1314 UTC
Wind: Calm:0
Visibility: 3 mile(s):0
Sky conditions: clear
Weather: mist
Temperature: -18.9 F (-28.3 C)
Dew Point: -20.9 F (-29.4 C)
Relative Humidity: 90%
Pressure (altimeter): 30.18 in. Hg (1022 hPa)
ob: KSLK 261314Z AUTO 00000KT 3SM BR CLR M28/M29 A3018 RMK AO2 T12831294
cycle: 13

Station Type Date Time Source
KSLK TAF 2022/01/26 12:36 UTC NOAA

TAF KSLK 261134Z 2612/2712 00000KT P6SM FEW200
FM261400 VRB04KT P6SM FEW180

Example: see airport list